createdAt,value
2018-12-13T00:00:12.091Z,0.90
2018-12-13T00:05:14.623Z,0.80
2018-12-13T00:10:17.229Z,0.80
2018-12-13T00:15:21.868Z,0.70
2018-12-13T00:20:24.368Z,0.50
2018-12-13T00:25:26.958Z,0.70
2018-12-13T00:30:29.438Z,0.60
2018-12-13T00:35:32.397Z,0.70
2018-12-13T00:40:34.941Z,0.60
2018-12-13T00:45:37.751Z,0.60
2018-12-13T00:50:40.200Z,0.90
2018-12-13T00:55:43.291Z,1.00
2018-12-13T01:00:45.934Z,0.60
2018-12-13T01:05:48.433Z,0.60
2018-12-13T01:10:51.550Z,0.70
2018-12-13T01:15:54.257Z,0.70
2018-12-13T01:20:56.874Z,0.50
2018-12-13T01:25:59.438Z,0.40
2018-12-13T01:31:01.918Z,0.40
2018-12-13T01:36:04.411Z,0.50
2018-12-13T01:41:07.008Z,0.40
2018-12-13T01:46:09.494Z,0.20
2018-12-13T01:51:12.100Z,0.10
2018-12-13T01:56:14.589Z,0.10
2018-12-13T02:01:17.050Z,0.10
2018-12-13T02:06:19.574Z,-0.10
2018-12-13T02:11:22.047Z,-0.30
2018-12-13T02:16:24.829Z,-0.50
2018-12-13T02:21:27.323Z,-0.20
2018-12-13T02:26:29.830Z,-0.20
2018-12-13T02:31:40.259Z,-0.10
2018-12-13T02:36:42.782Z,-0.30
2018-12-13T02:41:45.331Z,-0.40
2018-12-13T02:46:47.802Z,-0.40
2018-12-13T02:51:50.276Z,-0.20
2018-12-13T02:56:52.910Z,-0.30
2018-12-13T03:01:55.504Z,-0.30
2018-12-13T03:06:57.995Z,-0.30
2018-12-13T03:12:00.490Z,-0.40
2018-12-13T03:17:03.286Z,-0.30
2018-12-13T03:22:06.395Z,0.00
2018-12-13T03:27:08.882Z,0.10
2018-12-13T03:32:11.433Z,0.10
2018-12-13T03:37:20.390Z,0.10
2018-12-13T03:42:18.938Z,0.10
2018-12-13T03:47:21.780Z,0.00
2018-12-13T03:52:24.326Z,0.10
2018-12-13T03:57:26.826Z,0.20
2018-12-13T04:02:30.206Z,0.20
2018-12-13T04:07:32.927Z,0.30
2018-12-13T04:12:35.421Z,0.20
2018-12-13T04:17:38.034Z,0.30
2018-12-13T04:22:40.616Z,0.30
2018-12-13T04:27:43.108Z,0.40
2018-12-13T04:32:45.694Z,0.30
2018-12-13T04:37:48.170Z,0.20
2018-12-13T04:42:50.683Z,0.30
2018-12-13T04:47:53.181Z,0.30
2018-12-13T04:52:55.672Z,0.40
2018-12-13T04:57:58.168Z,0.30
2018-12-13T05:03:00.770Z,0.20
2018-12-13T05:08:03.251Z,0.10
2018-12-13T05:13:05.755Z,0.10
2018-12-13T05:18:08.403Z,0.10
2018-12-13T05:23:10.945Z,0.00
2018-12-13T05:28:13.738Z,0.00
2018-12-13T05:33:16.194Z,0.00
2018-12-13T05:38:19.165Z,0.00
2018-12-13T05:43:22.033Z,0.00
2018-12-13T05:48:24.493Z,-0.20
2018-12-13T05:53:27.017Z,-0.10
2018-12-13T05:58:29.526Z,-0.10
2018-12-13T06:03:32.021Z,-0.20
2018-12-13T06:08:34.598Z,-0.20
2018-12-13T06:13:37.112Z,-0.30
2018-12-13T06:18:39.700Z,-0.40
2018-12-13T06:23:42.190Z,-0.30
2018-12-13T06:28:44.673Z,-0.40
2018-12-13T06:33:47.280Z,-0.30
2018-12-13T06:38:49.866Z,-0.40
2018-12-13T06:43:52.435Z,-0.50
2018-12-13T06:48:55.381Z,-0.50
2018-12-13T06:53:58.586Z,-0.50
2018-12-13T06:59:01.083Z,-0.50
2018-12-13T07:04:03.580Z,-0.50
2018-12-13T07:09:06.211Z,-0.50
2018-12-13T07:14:08.704Z,-0.60
2018-12-13T07:19:11.174Z,-0.60
2018-12-13T07:24:13.741Z,-0.60
2018-12-13T07:29:16.238Z,-0.70
2018-12-13T07:34:18.734Z,-0.70
2018-12-13T07:39:21.210Z,-0.80
2018-12-13T07:44:23.934Z,-0.70
2018-12-13T07:49:27.165Z,-0.80
2018-12-13T07:54:29.644Z,-0.60
2018-12-13T07:59:32.375Z,-0.60
2018-12-13T08:04:34.834Z,-0.60
2018-12-13T08:09:37.306Z,-0.60
2018-12-13T08:14:39.898Z,-0.60
2018-12-13T08:19:42.434Z,-0.50
2018-12-13T08:24:44.987Z,-0.60
2018-12-13T08:29:47.786Z,-0.50
2018-12-13T08:34:50.282Z,-0.10
2018-12-13T08:39:52.873Z,0.50
2018-12-13T08:44:55.422Z,1.40
2018-12-13T08:49:57.966Z,1.30
2018-12-13T08:55:00.457Z,0.90
2018-12-13T09:00:03.665Z,0.60
2018-12-13T09:05:06.469Z,0.70
2018-12-13T09:10:10.378Z,1.80
2018-12-13T09:15:13.089Z,1.70
2018-12-13T09:20:15.586Z,2.30
2018-12-13T09:25:18.091Z,2.20
2018-12-13T09:30:20.662Z,1.70
2018-12-13T09:35:23.378Z,1.20
2018-12-13T09:40:25.849Z,0.90
2018-12-13T09:45:28.878Z,1.10
2018-12-13T09:50:32.082Z,1.30
2018-12-13T09:55:34.586Z,1.30
2018-12-13T10:00:37.384Z,1.20
2018-12-13T10:05:39.873Z,1.20
2018-12-13T10:10:42.378Z,1.20
2018-12-13T10:15:44.949Z,1.30
2018-12-13T10:20:47.458Z,1.40
2018-12-13T10:25:49.947Z,1.60
2018-12-13T10:30:52.443Z,1.90
2018-12-13T10:35:54.979Z,1.90
2018-12-13T10:40:57.467Z,1.90
2018-12-13T10:45:59.942Z,2.10
2018-12-13T10:51:02.507Z,2.20
2018-12-13T10:56:04.994Z,2.20
2018-12-13T11:01:13.134Z,2.30
2018-12-13T11:06:15.725Z,2.30
2018-12-13T11:11:18.213Z,2.30
2018-12-13T11:16:20.701Z,2.30
2018-12-13T11:21:23.198Z,2.40
2018-12-13T11:26:25.672Z,2.30
2018-12-13T11:31:28.490Z,2.50
2018-12-13T11:36:30.994Z,2.60
2018-12-13T11:41:33.518Z,2.80
2018-12-13T11:46:36.009Z,3.20
2018-12-13T11:51:38.570Z,3.10
2018-12-13T11:56:41.169Z,2.90
2018-12-13T12:01:44.677Z,3.00
2018-12-13T12:06:47.197Z,2.80
2018-12-13T12:11:50.027Z,2.90
2018-12-13T12:16:52.478Z,2.90
2018-12-13T12:21:55.037Z,3.10
2018-12-13T12:26:57.550Z,3.10
2018-12-13T12:32:00.045Z,3.00
2018-12-13T12:37:02.581Z,3.10
2018-12-13T12:42:05.142Z,3.20
2018-12-13T12:47:07.596Z,3.30
2018-12-13T12:52:10.233Z,3.10
2018-12-13T12:57:13.396Z,3.30
2018-12-13T13:02:16.027Z,3.20
2018-12-13T13:07:18.529Z,3.10
2018-12-13T13:12:21.012Z,3.10
2018-12-13T13:17:23.564Z,3.10
2018-12-13T13:22:26.102Z,3.10
2018-12-13T13:27:28.902Z,3.20
2018-12-13T13:32:31.393Z,3.20
2018-12-13T13:37:33.890Z,3.20
2018-12-13T13:42:36.342Z,3.20
2018-12-13T13:47:38.874Z,3.20
2018-12-13T13:52:41.370Z,3.10
2018-12-13T13:57:43.859Z,3.10
2018-12-13T14:02:46.354Z,3.10
2018-12-13T14:07:48.851Z,3.10
2018-12-13T14:12:51.394Z,3.10
2018-12-13T14:17:53.830Z,3.10
2018-12-13T14:22:56.550Z,3.00
2018-12-13T14:27:59.126Z,3.00
2018-12-13T14:33:01.674Z,2.90
2018-12-13T14:38:04.187Z,2.90
2018-12-13T14:43:07.322Z,2.90
2018-12-13T14:48:09.847Z,2.80
2018-12-13T14:53:12.429Z,2.80
2018-12-13T14:58:14.926Z,2.70
2018-12-13T15:03:17.397Z,2.60
2018-12-13T15:08:19.891Z,2.70
2018-12-13T15:13:22.378Z,2.60
2018-12-13T15:18:24.842Z,2.70
2018-12-13T15:23:27.394Z,2.70
2018-12-13T15:28:29.870Z,2.70
2018-12-13T15:33:32.328Z,2.70
2018-12-13T15:38:34.802Z,2.70
2018-12-13T15:43:37.307Z,2.60
2018-12-13T15:48:39.830Z,2.50
2018-12-13T15:53:42.333Z,2.50
2018-12-13T15:58:45.385Z,2.50
2018-12-13T16:03:47.938Z,2.50
2018-12-13T16:08:50.649Z,2.50
2018-12-13T16:13:53.260Z,2.50
2018-12-13T16:18:55.841Z,2.50
2018-12-13T16:23:58.394Z,2.50
2018-12-13T16:29:00.986Z,2.50
2018-12-13T16:34:03.600Z,2.50
2018-12-13T16:39:07.839Z,2.50
2018-12-13T16:44:10.437Z,2.50
2018-12-13T16:49:13.650Z,2.40
2018-12-13T16:54:16.701Z,2.50
2018-12-13T16:59:19.237Z,2.50
2018-12-13T17:04:21.738Z,2.50
2018-12-13T17:09:24.944Z,2.50
2018-12-13T17:14:27.451Z,2.50
2018-12-13T17:19:29.892Z,2.50
2018-12-13T17:24:32.405Z,2.50
2018-12-13T17:29:34.899Z,2.50
2018-12-13T17:34:37.411Z,2.50
2018-12-13T17:39:39.902Z,2.40
2018-12-13T17:44:42.479Z,2.40
2018-12-13T17:49:44.985Z,2.40
2018-12-13T17:54:47.593Z,2.30
2018-12-13T17:59:50.062Z,2.30
2018-12-13T18:04:52.560Z,2.30
2018-12-13T18:09:55.077Z,2.30
2018-12-13T18:14:57.705Z,2.20
2018-12-13T18:20:00.175Z,2.30
2018-12-13T18:25:02.757Z,2.20
2018-12-13T18:30:07.098Z,2.20
2018-12-13T18:35:09.688Z,2.20
2018-12-13T18:40:12.275Z,2.20
2018-12-13T18:45:14.770Z,2.30
2018-12-13T18:50:18.077Z,2.20
2018-12-13T18:55:20.584Z,2.20
2018-12-13T19:00:23.071Z,2.20
2018-12-13T19:05:25.661Z,2.20
2018-12-13T19:10:28.166Z,2.10
2018-12-13T19:15:30.605Z,2.10
2018-12-13T19:20:33.150Z,2.10
2018-12-13T19:25:35.734Z,2.10
2018-12-13T19:30:38.334Z,2.00
2018-12-13T19:35:40.833Z,2.10
2018-12-13T19:40:48.300Z,2.10
2018-12-13T19:45:47.973Z,2.10
2018-12-13T19:50:50.826Z,1.90
2018-12-13T19:55:53.358Z,1.90
2018-12-13T20:00:55.863Z,2.00
2018-12-13T20:05:58.510Z,2.00
2018-12-13T20:11:01.039Z,2.10
2018-12-13T20:16:03.607Z,2.00
2018-12-13T20:21:06.061Z,2.00
2018-12-13T20:26:08.728Z,2.00
2018-12-13T20:31:11.330Z,2.00
2018-12-13T20:36:13.825Z,2.00
2018-12-13T20:41:16.719Z,1.90
2018-12-13T20:46:19.270Z,1.80
2018-12-13T20:51:21.818Z,1.90
2018-12-13T20:56:24.308Z,1.90
2018-12-13T21:01:26.795Z,2.00
2018-12-13T21:06:29.342Z,1.80
2018-12-13T21:11:31.998Z,1.70
2018-12-13T21:16:34.478Z,1.80
2018-12-13T21:21:37.843Z,1.70
2018-12-13T21:26:40.381Z,1.80
2018-12-13T21:31:43.086Z,1.80
2018-12-13T21:36:46.088Z,1.80
2018-12-13T21:41:48.602Z,1.80
2018-12-13T21:46:51.127Z,1.70
2018-12-13T21:51:53.670Z,1.70
2018-12-13T21:56:56.676Z,1.80
2018-12-13T22:01:59.181Z,1.80
2018-12-13T22:07:01.758Z,1.80
2018-12-13T22:12:04.309Z,1.70
2018-12-13T22:17:06.846Z,1.60
2018-12-13T22:22:09.551Z,1.60
2018-12-13T22:27:12.152Z,1.60
2018-12-13T22:32:14.629Z,1.60
2018-12-13T22:37:17.081Z,1.70
2018-12-13T22:42:19.629Z,1.60
2018-12-13T22:47:22.114Z,1.60
2018-12-13T22:52:24.617Z,1.60
2018-12-13T22:57:27.205Z,1.50
2018-12-13T23:02:29.803Z,1.60
2018-12-13T23:07:32.498Z,1.50
2018-12-13T23:12:34.989Z,1.50
2018-12-13T23:17:37.582Z,1.50
2018-12-13T23:22:40.190Z,1.50
2018-12-13T23:27:42.675Z,1.50
2018-12-13T23:32:45.170Z,1.50
2018-12-13T23:37:48.069Z,1.50
2018-12-13T23:42:50.555Z,1.60
2018-12-13T23:47:53.158Z,1.60
2018-12-13T23:52:55.810Z,1.60
2018-12-13T23:57:58.354Z,1.60
